sensor_id;sensor_type;location;lat;lon;timestamp;temperature;humidity
34472;DHT22;20710;49.976;19.836;2022-07-12T00:00:22;12.37;86.34
34472;DHT22;20710;49.976;19.836;2022-07-12T00:06:27;12.39;86.12
34472;DHT22;20710;49.976;19.836;2022-07-12T00:12:28;12.41;86.29
34472;DHT22;20710;49.976;19.836;2022-07-12T00:18:30;12.47;86.49
34472;DHT22;20710;49.976;19.836;2022-07-12T00:24:32;12.55;86.60
34472;DHT22;20710;49.976;19.836;2022-07-12T00:30:34;12.62;86.67
34472;DHT22;20710;49.976;19.836;2022-07-12T00:36:35;12.65;86.59
34472;DHT22;20710;49.976;19.836;2022-07-12T00:42:38;12.74;86.84
34472;DHT22;20710;49.976;19.836;2022-07-12T00:48:43;12.79;87.04
34472;DHT22;20710;49.976;19.836;2022-07-12T00:54:46;12.83;87.01
34472;DHT22;20710;49.976;19.836;2022-07-12T01:00:47;12.88;87.19
34472;DHT22;20710;49.976;19.836;2022-07-12T01:06:48;12.92;87.12
34472;DHT22;20710;49.976;19.836;2022-07-12T01:12:51;12.98;87.40
34472;DHT22;20710;49.976;19.836;2022-07-12T01:18:53;13.05;87.56
34472;DHT22;20710;49.976;19.836;2022-07-12T01:24:55;13.06;87.44
34472;DHT22;20710;49.976;19.836;2022-07-12T01:30:58;13.07;87.24
34472;DHT22;20710;49.976;19.836;2022-07-12T01:37:01;13.09;87.26
34472;DHT22;20710;49.976;19.836;2022-07-12T01:43:02;13.13;87.44
34472;DHT22;20710;49.976;19.836;2022-07-12T01:49:05;13.16;87.33
34472;DHT22;20710;49.976;19.836;2022-07-12T01:55:09;13.14;87.32
34472;DHT22;20710;49.976;19.836;2022-07-12T02:01:12;13.16;87.30
34472;DHT22;20710;49.976;19.836;2022-07-12T02:07:19;13.17;87.28
34472;DHT22;20710;49.976;19.836;2022-07-12T02:13:20;13.19;87.20
34472;DHT22;20710;49.976;19.836;2022-07-12T02:19:22;13.20;87.22
34472;DHT22;20710;49.976;19.836;2022-07-12T02:25:28;13.17;87.33
34472;DHT22;20710;49.976;19.836;2022-07-12T02:31:30;13.17;87.21
34472;DHT22;20710;49.976;19.836;2022-07-12T02:37:39;13.17;87.36
34472;DHT22;20710;49.976;19.836;2022-07-12T02:43:46;13.19;87.48
34472;DHT22;20710;49.976;19.836;2022-07-12T02:49:49;13.17;87.62
34472;DHT22;20710;49.976;19.836;2022-07-12T02:55:52;13.22;87.69
34472;DHT22;20710;49.976;19.836;2022-07-12T03:02:02;13.24;87.72
34472;DHT22;20710;49.976;19.836;2022-07-12T03:08:05;13.26;87.92
34472;DHT22;20710;49.976;19.836;2022-07-12T03:14:14;13.24;87.79
34472;DHT22;20710;49.976;19.836;2022-07-12T03:20:25;13.24;87.83
34472;DHT22;20710;49.976;19.836;2022-07-12T03:26:29;13.27;88.10
34472;DHT22;20710;49.976;19.836;2022-07-12T03:32:45;13.30;88.13
34472;DHT22;20710;49.976;19.836;2022-07-12T03:38:46;13.30;88.18
34472;DHT22;20710;49.976;19.836;2022-07-12T03:44:48;13.35;88.24
34472;DHT22;20710;49.976;19.836;2022-07-12T03:50:49;13.35;88.35
34472;DHT22;20710;49.976;19.836;2022-07-12T03:56:51;13.35;88.51
34472;DHT22;20710;49.976;19.836;2022-07-12T04:03:11;13.35;88.31
34472;DHT22;20710;49.976;19.836;2022-07-12T04:09:12;13.35;88.21
34472;DHT22;20710;49.976;19.836;2022-07-12T04:15:13;13.37;88.25
34472;DHT22;20710;49.976;19.836;2022-07-12T04:21:15;13.47;88.40
34472;DHT22;20710;49.976;19.836;2022-07-12T04:27:26;13.48;88.54
34472;DHT22;20710;49.976;19.836;2022-07-12T04:33:28;13.55;88.52
34472;DHT22;20710;49.976;19.836;2022-07-12T04:39:34;13.59;88.62
34472;DHT22;20710;49.976;19.836;2022-07-12T04:45:40;13.71;88.63
34472;DHT22;20710;49.976;19.836;2022-07-12T04:51:45;13.82;88.42
34472;DHT22;20710;49.976;19.836;2022-07-12T04:57:51;13.93;88.55
34472;DHT22;20710;49.976;19.836;2022-07-12T05:03:59;14.02;88.73
34472;DHT22;20710;49.976;19.836;2022-07-12T05:10:01;14.17;88.62
34472;DHT22;20710;49.976;19.836;2022-07-12T05:16:11;14.32;88.15
34472;DHT22;20710;49.976;19.836;2022-07-12T05:22:37;14.48;88.41
34472;DHT22;20710;49.976;19.836;2022-07-12T05:28:42;14.52;88.26
34472;DHT22;20710;49.976;19.836;2022-07-12T05:35:05;14.59;87.84
34472;DHT22;20710;49.976;19.836;2022-07-12T05:41:07;14.62;87.75
34472;DHT22;20710;49.976;19.836;2022-07-12T05:47:11;14.61;87.34
34472;DHT22;20710;49.976;19.836;2022-07-12T05:59:46;14.64;87.20
34472;DHT22;20710;49.976;19.836;2022-07-12T06:05:53;14.65;87.21
34472;DHT22;20710;49.976;19.836;2022-07-12T06:11:56;14.78;87.16
34472;DHT22;20710;49.976;19.836;2022-07-12T06:18:21;14.85;87.19
34472;DHT22;20710;49.976;19.836;2022-07-12T06:24:28;14.99;87.12
34472;DHT22;20710;49.976;19.836;2022-07-12T06:37:44;15.31;86.87
34472;DHT22;20710;49.976;19.836;2022-07-12T06:44:00;15.52;86.82
34472;DHT22;20710;49.976;19.836;2022-07-12T06:50:04;15.69;85.90
34472;DHT22;20710;49.976;19.836;2022-07-12T06:56:10;15.76;85.84
34472;DHT22;20710;49.976;19.836;2022-07-12T07:02:18;15.83;85.88
34472;DHT22;20710;49.976;19.836;2022-07-12T08:21:52;17.41;81.32
34472;DHT22;20710;49.976;19.836;2022-07-12T08:27:54;17.77;80.75
34472;DHT22;20710;49.976;19.836;2022-07-12T08:33:55;18.07;80.17
34472;DHT22;20710;49.976;19.836;2022-07-12T08:39:58;18.55;79.50
34472;DHT22;20710;49.976;19.836;2022-07-12T08:46:10;18.87;77.83
34472;DHT22;20710;49.976;19.836;2022-07-12T08:52:25;19.05;76.62
34472;DHT22;20710;49.976;19.836;2022-07-12T08:58:27;19.02;76.49
34472;DHT22;20710;49.976;19.836;2022-07-12T09:11:59;18.03;77.40
34472;DHT22;20710;49.976;19.836;2022-07-12T09:18:07;17.69;78.73
34472;DHT22;20710;49.976;19.836;2022-07-12T09:31:14;17.03;80.19
34472;DHT22;20710;49.976;19.836;2022-07-12T09:38:27;16.41;80.93
34472;DHT22;20710;49.976;19.836;2022-07-12T09:44:50;15.92;81.73
34472;DHT22;20710;49.976;19.836;2022-07-12T09:51:17;15.62;82.50
34472;DHT22;20710;49.976;19.836;2022-07-12T09:57:33;15.58;83.11
34472;DHT22;20710;49.976;19.836;2022-07-12T10:03:36;15.90;83.89
34472;DHT22;20710;49.976;19.836;2022-07-12T10:09:58;16.90;84.01
34472;DHT22;20710;49.976;19.836;2022-07-12T10:16:15;17.84;82.75
34472;DHT22;20710;49.976;19.836;2022-07-12T10:22:28;18.67;81.67
34472;DHT22;20710;49.976;19.836;2022-07-12T10:35:06;19.97;80.24
34472;DHT22;20710;49.976;19.836;2022-07-12T10:41:23;20.43;79.33
34472;DHT22;20710;49.976;19.836;2022-07-12T10:54:32;20.47;77.02
34472;DHT22;20710;49.976;19.836;2022-07-12T11:00:33;20.51;77.72
34472;DHT22;20710;49.976;19.836;2022-07-12T11:06:40;21.02;77.00
34472;DHT22;20710;49.976;19.836;2022-07-12T11:12:45;21.09;76.35
34472;DHT22;20710;49.976;19.836;2022-07-12T11:18:47;20.73;75.14
34472;DHT22;20710;49.976;19.836;2022-07-12T11:24:54;20.61;74.93
34472;DHT22;20710;49.976;19.836;2022-07-12T11:31:14;20.51;75.21
34472;DHT22;20710;49.976;19.836;2022-07-12T11:37:16;21.01;76.32
34472;DHT22;20710;49.976;19.836;2022-07-12T11:43:20;21.95;74.95
34472;DHT22;20710;49.976;19.836;2022-07-12T11:49:21;22.39;74.11
34472;DHT22;20710;49.976;19.836;2022-07-12T11:55:24;21.77;70.89
34472;DHT22;20710;49.976;19.836;2022-07-12T12:01:28;21.50;70.21
34472;DHT22;20710;49.976;19.836;2022-07-12T12:07:30;21.56;69.59
34472;DHT22;20710;49.976;19.836;2022-07-12T12:13:31;21.30;68.94
34472;DHT22;20710;49.976;19.836;2022-07-12T12:19:41;20.95;68.13
34472;DHT22;20710;49.976;19.836;2022-07-12T12:25:40;20.63;68.76
34472;DHT22;20710;49.976;19.836;2022-07-12T12:31:55;20.66;69.20
34472;DHT22;20710;49.976;19.836;2022-07-12T12:37:54;20.85;68.70
34472;DHT22;20710;49.976;19.836;2022-07-12T12:44:01;20.91;68.14
34472;DHT22;20710;49.976;19.836;2022-07-12T12:50:04;20.95;67.25
34472;DHT22;20710;49.976;19.836;2022-07-12T12:56:12;21.02;67.62
34472;DHT22;20710;49.976;19.836;2022-07-12T13:02:21;20.91;67.52
34472;DHT22;20710;49.976;19.836;2022-07-12T13:08:31;20.51;67.43
34472;DHT22;20710;49.976;19.836;2022-07-12T13:14:38;20.12;67.65
34472;DHT22;20710;49.976;19.836;2022-07-12T13:20:59;19.59;69.09
34472;DHT22;20710;49.976;19.836;2022-07-12T13:40:44;17.72;74.96
34472;DHT22;20710;49.976;19.836;2022-07-12T13:46:45;17.68;76.19
34472;DHT22;20710;49.976;19.836;2022-07-12T13:52:58;17.63;77.17
34472;DHT22;20710;49.976;19.836;2022-07-12T13:59:18;17.66;77.56
34472;DHT22;20710;49.976;19.836;2022-07-12T14:05:39;17.63;77.53
34472;DHT22;20710;49.976;19.836;2022-07-12T14:11:40;17.50;77.51
34472;DHT22;20710;49.976;19.836;2022-07-12T14:17:50;17.52;78.11
34472;DHT22;20710;49.976;19.836;2022-07-12T14:23:51;17.63;78.63
34472;DHT22;20710;49.976;19.836;2022-07-12T14:29:53;17.72;78.86
34472;DHT22;20710;49.976;19.836;2022-07-12T14:35:54;17.76;79.34
34472;DHT22;20710;49.976;19.836;2022-07-12T14:42:35;17.68;79.50
34472;DHT22;20710;49.976;19.836;2022-07-12T14:48:47;17.69;79.58
34472;DHT22;20710;49.976;19.836;2022-07-12T14:54:48;17.80;79.01
34472;DHT22;20710;49.976;19.836;2022-07-12T15:00:58;17.93;78.35
34472;DHT22;20710;49.976;19.836;2022-07-12T15:07:00;18.07;78.37
34472;DHT22;20710;49.976;19.836;2022-07-12T15:13:07;18.16;78.32
34472;DHT22;20710;49.976;19.836;2022-07-12T15:19:13;18.18;77.64
34472;DHT22;20710;49.976;19.836;2022-07-12T15:25:19;18.11;77.92
34472;DHT22;20710;49.976;19.836;2022-07-12T15:31:25;17.97;78.30
34472;DHT22;20710;49.976;19.836;2022-07-12T15:37:29;17.88;78.79
34472;DHT22;20710;49.976;19.836;2022-07-12T15:43:32;17.83;78.45
34472;DHT22;20710;49.976;19.836;2022-07-12T15:49:44;17.81;78.36
34472;DHT22;20710;49.976;19.836;2022-07-12T15:55:46;17.79;77.97
34472;DHT22;20710;49.976;19.836;2022-07-12T16:01:52;17.79;77.88
34472;DHT22;20710;49.976;19.836;2022-07-12T16:07:53;17.73;78.22
34472;DHT22;20710;49.976;19.836;2022-07-12T16:13:55;17.62;78.51
34472;DHT22;20710;49.976;19.836;2022-07-12T16:20:04;17.57;78.76
34472;DHT22;20710;49.976;19.836;2022-07-12T16:26:11;17.53;78.80
34472;DHT22;20710;49.976;19.836;2022-07-12T16:32:12;17.50;78.79
34472;DHT22;20710;49.976;19.836;2022-07-12T16:38:15;17.50;78.84
34472;DHT22;20710;49.976;19.836;2022-07-12T16:44:19;17.63;78.62
34472;DHT22;20710;49.976;19.836;2022-07-12T16:50:21;17.77;78.46
34472;DHT22;20710;49.976;19.836;2022-07-12T16:56:25;17.90;78.39
34472;DHT22;20710;49.976;19.836;2022-07-12T17:02:28;17.91;78.36
34472;DHT22;20710;49.976;19.836;2022-07-12T17:08:33;17.93;78.34
34472;DHT22;20710;49.976;19.836;2022-07-12T17:14:37;17.93;78.46
34472;DHT22;20710;49.976;19.836;2022-07-12T17:20:51;17.90;78.59
34472;DHT22;20710;49.976;19.836;2022-07-12T17:26:53;17.86;78.37
34472;DHT22;20710;49.976;19.836;2022-07-12T17:33:03;17.84;78.27
34472;DHT22;20710;49.976;19.836;2022-07-12T17:39:07;17.81;78.34
34472;DHT22;20710;49.976;19.836;2022-07-12T17:45:12;17.76;78.29
34472;DHT22;20710;49.976;19.836;2022-07-12T17:51:14;17.74;78.11
34472;DHT22;20710;49.976;19.836;2022-07-12T17:57:24;17.69;78.40
34472;DHT22;20710;49.976;19.836;2022-07-12T18:03:28;17.65;78.32
34472;DHT22;20710;49.976;19.836;2022-07-12T18:09:47;17.57;78.42
34472;DHT22;20710;49.976;19.836;2022-07-12T18:15:49;17.52;78.49
34472;DHT22;20710;49.976;19.836;2022-07-12T18:21:55;17.42;78.48
34472;DHT22;20710;49.976;19.836;2022-07-12T18:28:03;17.34;78.64
34472;DHT22;20710;49.976;19.836;2022-07-12T18:34:10;17.22;78.69
34472;DHT22;20710;49.976;19.836;2022-07-12T18:40:26;17.15;78.88
34472;DHT22;20710;49.976;19.836;2022-07-12T18:46:40;17.11;79.15
34472;DHT22;20710;49.976;19.836;2022-07-12T18:53:02;16.97;79.24
34472;DHT22;20710;49.976;19.836;2022-07-12T18:59:15;16.91;79.08
34472;DHT22;20710;49.976;19.836;2022-07-12T19:05:17;16.84;79.15
34472;DHT22;20710;49.976;19.836;2022-07-12T19:11:19;16.82;79.11
34472;DHT22;20710;49.976;19.836;2022-07-12T19:17:37;16.77;78.99
34472;DHT22;20710;49.976;19.836;2022-07-12T19:23:45;16.76;78.75
34472;DHT22;20710;49.976;19.836;2022-07-12T19:29:50;16.70;78.80
34472;DHT22;20710;49.976;19.836;2022-07-12T19:35:51;16.66;78.77
34472;DHT22;20710;49.976;19.836;2022-07-12T19:42:06;18.28;81.90
34472;DHT22;20710;49.976;19.836;2022-07-12T19:48:23;17.73;77.52
34472;DHT22;20710;49.976;19.836;2022-07-12T19:54:41;17.34;77.09
34472;DHT22;20710;49.976;19.836;2022-07-12T20:01:10;17.11;77.52
34472;DHT22;20710;49.976;19.836;2022-07-12T20:07:21;16.99;77.12
34472;DHT22;20710;49.976;19.836;2022-07-12T20:13:34;16.97;76.74
34472;DHT22;20710;49.976;19.836;2022-07-12T20:19:36;16.93;76.58
34472;DHT22;20710;49.976;19.836;2022-07-12T20:26:37;16.93;76.45
34472;DHT22;20710;49.976;19.836;2022-07-12T20:32:52;16.93;76.38
34472;DHT22;20710;49.976;19.836;2022-07-12T20:39:17;16.93;76.59
34472;DHT22;20710;49.976;19.836;2022-07-12T20:45:28;16.91;75.81
34472;DHT22;20710;49.976;19.836;2022-07-12T20:51:33;16.96;75.11
34472;DHT22;20710;49.976;19.836;2022-07-12T20:57:36;16.93;75.24
34472;DHT22;20710;49.976;19.836;2022-07-12T21:03:42;16.96;74.97
34472;DHT22;20710;49.976;19.836;2022-07-12T21:16:18;16.94;74.42
34472;DHT22;20710;49.976;19.836;2022-07-12T21:22:20;16.93;74.90
34472;DHT22;20710;49.976;19.836;2022-07-12T21:28:25;16.90;75.36
34472;DHT22;20710;49.976;19.836;2022-07-12T21:34:38;16.83;75.52
34472;DHT22;20710;49.976;19.836;2022-07-12T21:40:40;16.79;75.62
34472;DHT22;20710;49.976;19.836;2022-07-12T21:47:02;16.80;75.35
34472;DHT22;20710;49.976;19.836;2022-07-12T21:53:15;16.79;75.02
34472;DHT22;20710;49.976;19.836;2022-07-12T21:59:22;16.82;74.80
34472;DHT22;20710;49.976;19.836;2022-07-12T22:05:27;16.77;74.62
34472;DHT22;20710;49.976;19.836;2022-07-12T22:11:34;16.77;74.45
34472;DHT22;20710;49.976;19.836;2022-07-12T22:17:43;16.76;74.28
34472;DHT22;20710;49.976;19.836;2022-07-12T22:23:47;16.69;74.29
34472;DHT22;20710;49.976;19.836;2022-07-12T22:29:52;16.67;74.50
34472;DHT22;20710;49.976;19.836;2022-07-12T22:35:55;16.55;74.62
34472;DHT22;20710;49.976;19.836;2022-07-12T22:42:11;16.44;74.71
34472;DHT22;20710;49.976;19.836;2022-07-12T22:48:16;16.29;75.04
34472;DHT22;20710;49.976;19.836;2022-07-12T22:54:22;16.20;75.55
34472;DHT22;20710;49.976;19.836;2022-07-12T23:00:28;16.09;75.85
34472;DHT22;20710;49.976;19.836;2022-07-12T23:06:29;16.06;76.05
34472;DHT22;20710;49.976;19.836;2022-07-12T23:12:33;16.01;76.36
34472;DHT22;20710;49.976;19.836;2022-07-12T23:18:34;15.98;76.10
34472;DHT22;20710;49.976;19.836;2022-07-12T23:24:35;15.96;76.42
34472;DHT22;20710;49.976;19.836;2022-07-12T23:30:40;15.92;76.66
34472;DHT22;20710;49.976;19.836;2022-07-12T23:36:43;15.92;77.09
34472;DHT22;20710;49.976;19.836;2022-07-12T23:42:48;15.86;77.38
34472;DHT22;20710;49.976;19.836;2022-07-12T23:48:49;15.82;77.66
34472;DHT22;20710;49.976;19.836;2022-07-12T23:55:00;15.82;77.26
